createdAt,value
2018-12-16T00:03:52.958Z,0.80
2018-12-16T00:14:13.066Z,1.00
2018-12-16T00:19:22.667Z,1.00
2018-12-16T00:24:32.272Z,0.90
2018-12-16T00:40:00.154Z,0.90
2018-12-16T00:45:09.776Z,0.80
2018-12-16T00:50:19.159Z,0.80
2018-12-16T00:55:28.526Z,0.90
2018-12-16T01:05:47.138Z,1.10
2018-12-16T01:10:56.590Z,1.00
2018-12-16T01:16:05.929Z,1.20
2018-12-16T01:21:15.557Z,1.10
2018-12-16T01:26:24.937Z,1.00
2018-12-16T01:31:34.319Z,1.00
2018-12-16T01:36:43.642Z,1.00
2018-12-16T01:41:53.058Z,1.10
2018-12-16T01:47:02.678Z,1.10
2018-12-16T01:57:21.183Z,1.30
2018-12-16T02:02:30.547Z,1.10
2018-12-16T02:07:40.086Z,1.00
2018-12-16T02:12:49.709Z,0.80
2018-12-16T02:17:59.277Z,0.70
2018-12-16T02:23:08.658Z,0.60
2018-12-16T02:28:18.266Z,0.20
2018-12-16T02:33:27.704Z,0.40
2018-12-16T02:38:37.082Z,0.30
2018-12-16T02:43:46.785Z,0.60
2018-12-16T02:48:56.307Z,0.80
2018-12-16T02:54:05.810Z,0.60
2018-12-16T02:59:15.334Z,0.40
2018-12-16T03:04:24.696Z,0.40
2018-12-16T03:09:34.350Z,0.40
2018-12-16T03:14:43.876Z,0.20
2018-12-16T03:19:53.553Z,0.40
2018-12-16T03:25:03.175Z,0.30
2018-12-16T03:30:12.756Z,0.40
2018-12-16T03:35:22.269Z,0.00
2018-12-16T03:40:31.661Z,0.10
2018-12-16T03:45:41.163Z,0.30
2018-12-16T03:50:50.517Z,0.40
2018-12-16T03:55:59.865Z,0.40
2018-12-16T04:01:09.225Z,0.20
2018-12-16T04:06:18.804Z,0.10
2018-12-16T04:11:28.211Z,0.00
2018-12-16T04:16:37.611Z,0.20
2018-12-16T04:21:46.991Z,0.00
2018-12-16T04:26:56.406Z,0.00
2018-12-16T04:37:15.104Z,0.40
2018-12-16T04:47:34.205Z,0.10
2018-12-16T04:57:52.891Z,-0.20
2018-12-16T05:03:02.373Z,0.10
2018-12-16T05:13:21.147Z,-0.10
2018-12-16T05:18:30.521Z,-0.10
2018-12-16T05:23:42.071Z,-0.10
2018-12-16T05:44:19.385Z,-0.20
2018-12-16T05:49:28.770Z,0.00
2018-12-16T05:54:38.202Z,0.00
2018-12-16T05:59:47.586Z,-0.10
2018-12-16T06:04:57.178Z,-0.10
2018-12-16T06:10:07.026Z,-0.10
2018-12-16T06:15:16.571Z,0.00
2018-12-16T06:20:26.143Z,0.10
2018-12-16T06:25:35.514Z,0.10
2018-12-16T06:35:54.630Z,0.30
2018-12-16T06:41:04.377Z,0.10
2018-12-16T06:46:13.855Z,0.20
2018-12-16T06:51:23.183Z,0.20
2018-12-16T06:56:32.551Z,0.20
2018-12-16T07:01:41.926Z,0.40
2018-12-16T07:06:51.433Z,0.50
2018-12-16T07:12:00.851Z,0.30
2018-12-16T07:17:10.222Z,0.20
2018-12-16T07:27:29.110Z,0.50
2018-12-16T07:32:38.749Z,0.30
2018-12-16T07:37:49.180Z,0.60
2018-12-16T07:48:08.186Z,0.40
2018-12-16T07:53:17.832Z,0.40
2018-12-16T07:58:27.504Z,0.50
2018-12-16T08:03:37.103Z,0.40
2018-12-16T08:08:46.785Z,0.50
2018-12-16T08:13:56.234Z,0.70
2018-12-16T08:19:07.202Z,0.80
2018-12-16T08:24:22.910Z,0.90
2018-12-16T08:29:28.015Z,0.60
2018-12-16T08:34:37.490Z,0.40
2018-12-16T08:39:46.919Z,0.30
2018-12-16T08:50:06.710Z,0.90
2018-12-16T08:55:16.263Z,0.70
2018-12-16T09:00:25.843Z,0.70
2018-12-16T09:05:35.576Z,0.70
2018-12-16T09:10:45.315Z,0.80
2018-12-16T09:15:54.782Z,0.70
2018-12-16T09:21:04.236Z,0.80
2018-12-16T09:26:13.968Z,1.00
2018-12-16T09:31:23.482Z,1.00
2018-12-16T09:36:33.137Z,0.90
2018-12-16T09:41:42.672Z,0.80
2018-12-16T09:46:52.170Z,0.90
2018-12-16T09:52:01.687Z,1.00
2018-12-16T09:57:11.278Z,1.20
2018-12-16T10:02:20.710Z,0.90
2018-12-16T10:07:30.178Z,0.90
2018-12-16T10:12:39.639Z,0.80
2018-12-16T10:22:59.830Z,0.70
2018-12-16T10:28:09.530Z,0.80
2018-12-16T10:43:37.566Z,0.90
2018-12-16T10:48:47.122Z,1.00
2018-12-16T10:53:56.756Z,0.90
2018-12-16T10:59:06.233Z,0.90
2018-12-16T11:04:15.609Z,1.20
2018-12-16T11:09:25.137Z,1.00
2018-12-16T11:19:43.574Z,1.10
2018-12-16T11:24:52.939Z,1.20
2018-12-16T11:30:02.491Z,1.20
2018-12-16T11:35:12.067Z,1.10
2018-12-16T11:40:21.613Z,1.00
2018-12-16T11:45:30.946Z,1.20
2018-12-16T11:50:40.426Z,1.20
2018-12-16T11:55:50.102Z,1.30
2018-12-16T12:00:59.851Z,1.20
2018-12-16T12:06:09.349Z,1.30
2018-12-16T12:11:18.818Z,1.20
2018-12-16T12:16:28.324Z,1.30
2018-12-16T12:21:37.775Z,1.30
2018-12-16T12:26:47.255Z,1.50
2018-12-16T12:31:56.695Z,1.30
2018-12-16T12:37:06.422Z,1.50
2018-12-16T12:47:25.039Z,1.50
2018-12-16T12:52:34.570Z,1.60
2018-12-16T12:57:44.125Z,1.80
2018-12-16T13:02:55.777Z,1.70
2018-12-16T13:08:05.490Z,2.00
2018-12-16T13:13:15.844Z,2.20
2018-12-16T13:18:26.627Z,2.00
2018-12-16T13:23:35.977Z,2.10
2018-12-16T13:28:45.757Z,1.90
2018-12-16T13:33:55.206Z,2.10
2018-12-16T13:39:06.914Z,2.10
2018-12-16T13:44:16.434Z,2.00
2018-12-16T13:49:26.121Z,2.60
2018-12-16T13:54:35.521Z,2.80
2018-12-16T13:59:45.004Z,2.40
2018-12-16T14:04:54.549Z,2.50
2018-12-16T14:15:13.496Z,2.30
2018-12-16T14:20:22.897Z,2.30
2018-12-16T14:25:32.481Z,2.40
2018-12-16T14:30:42.144Z,2.80
2018-12-16T14:35:51.777Z,3.00
2018-12-16T14:41:01.087Z,3.20
2018-12-16T14:46:10.651Z,2.70
2018-12-16T14:51:20.822Z,2.60
2018-12-16T14:56:30.341Z,2.70
2018-12-16T15:01:39.661Z,2.70
2018-12-16T15:06:49.061Z,2.50
2018-12-16T15:11:58.605Z,2.50
2018-12-16T15:17:08.243Z,3.00
2018-12-16T15:22:17.673Z,3.00
2018-12-16T15:27:27.101Z,3.00
2018-12-16T15:32:36.493Z,2.90
2018-12-16T15:37:45.867Z,2.70
2018-12-16T15:42:55.242Z,2.60
2018-12-16T15:48:04.637Z,2.80
2018-12-16T15:53:13.990Z,2.70
2018-12-16T15:58:23.507Z,3.00
2018-12-16T16:03:33.030Z,2.90
2018-12-16T16:08:42.606Z,2.80
2018-12-16T16:13:52.005Z,2.50
2018-12-16T16:19:01.397Z,2.70
2018-12-16T16:24:11.001Z,2.50
2018-12-16T16:29:20.369Z,2.60
2018-12-16T16:34:29.709Z,2.50
2018-12-16T16:39:39.073Z,2.40
2018-12-16T16:44:48.489Z,2.60
2018-12-16T16:49:57.873Z,2.50
2018-12-16T16:55:08.515Z,2.70
2018-12-16T17:00:17.858Z,2.70
2018-12-16T17:05:27.525Z,2.60
2018-12-16T17:10:37.075Z,2.50
2018-12-16T17:15:46.514Z,2.90
2018-12-16T17:20:56.049Z,2.90
2018-12-16T17:26:05.594Z,2.90
2018-12-16T17:31:15.282Z,3.20
2018-12-16T17:36:24.985Z,3.10
2018-12-16T17:41:34.399Z,3.00
2018-12-16T17:46:43.769Z,3.00
2018-12-16T17:51:53.170Z,3.30
2018-12-16T17:57:02.582Z,3.20
2018-12-16T18:02:12.006Z,3.10
2018-12-16T18:07:22.483Z,3.20
2018-12-16T18:17:41.249Z,3.00
2018-12-16T18:22:50.773Z,3.00
2018-12-16T18:28:00.218Z,2.80
2018-12-16T18:33:10.153Z,2.80
2018-12-16T18:38:19.699Z,2.90
2018-12-16T18:43:29.084Z,3.00
2018-12-16T18:48:38.477Z,3.10
2018-12-16T18:53:47.872Z,3.10
2018-12-16T18:58:57.822Z,3.00
2018-12-16T19:04:07.211Z,3.20
2018-12-16T19:09:16.809Z,3.30
2018-12-16T19:14:26.380Z,3.30
2018-12-16T19:19:35.924Z,3.30
2018-12-16T19:24:45.444Z,3.10
2018-12-16T19:29:54.785Z,3.00
2018-12-16T19:35:06.584Z,3.30
2018-12-16T19:40:15.977Z,3.20
2018-12-16T19:45:25.468Z,3.20
2018-12-16T19:50:34.978Z,3.60
2018-12-16T19:55:44.981Z,3.60
2018-12-16T20:06:09.193Z,3.50
2018-12-16T20:11:18.549Z,3.50
2018-12-16T20:16:28.227Z,3.40
2018-12-16T20:21:37.831Z,3.60
2018-12-16T20:26:47.211Z,3.40
2018-12-16T20:31:57.071Z,3.60
2018-12-16T20:37:07.093Z,3.70
2018-12-16T20:42:16.696Z,3.80
2018-12-16T20:47:26.303Z,3.80
2018-12-16T20:52:36.785Z,4.00
2018-12-16T20:57:46.449Z,3.90
2018-12-16T21:02:55.903Z,3.60
2018-12-16T21:08:05.305Z,3.60
2018-12-16T21:13:20.234Z,3.80
2018-12-16T21:18:30.471Z,3.70
2018-12-16T21:23:40.181Z,3.90
2018-12-16T21:28:49.709Z,3.80
2018-12-16T21:33:59.378Z,3.70
2018-12-16T21:39:09.091Z,3.60
2018-12-16T21:44:18.542Z,3.50
2018-12-16T21:49:28.050Z,3.60
2018-12-16T21:54:37.589Z,3.60
2018-12-16T21:59:47.505Z,3.60
2018-12-16T22:04:57.150Z,3.70
2018-12-16T22:10:06.972Z,3.70
2018-12-16T22:15:16.457Z,3.70
2018-12-16T22:20:26.034Z,3.60
2018-12-16T22:25:35.550Z,3.50
2018-12-16T22:30:45.304Z,3.60
2018-12-16T22:35:54.854Z,3.70
2018-12-16T22:41:04.437Z,3.60
2018-12-16T22:46:14.306Z,3.80
2018-12-16T22:51:23.837Z,3.70
2018-12-16T22:56:33.217Z,3.70
2018-12-16T23:01:42.614Z,3.80
2018-12-16T23:06:51.998Z,3.70
2018-12-16T23:12:01.515Z,3.60
2018-12-16T23:17:11.090Z,3.80
2018-12-16T23:22:20.525Z,3.70
2018-12-16T23:27:30.014Z,3.90
2018-12-16T23:32:39.466Z,3.80
2018-12-16T23:37:48.953Z,4.00
2018-12-16T23:42:58.334Z,4.00
2018-12-16T23:48:07.694Z,4.00
2018-12-16T23:53:17.266Z,4.40
2018-12-16T23:58:26.763Z,4.40
